sensor_id;sensor_type;location;lat;lon;timestamp;temperature;humidity
14097;DHT22;7125;48.106;11.544;2022-07-23T00:01:26;23.30;98.50
14097;DHT22;7125;48.106;11.544;2022-07-23T00:03:54;23.20;98.80
14097;DHT22;7125;48.106;11.544;2022-07-23T00:06:21;23.20;98.20
14097;DHT22;7125;48.106;11.544;2022-07-23T00:08:48;23.20;98.30
14097;DHT22;7125;48.106;11.544;2022-07-23T00:11:17;23.20;98.40
14097;DHT22;7125;48.106;11.544;2022-07-23T00:13:44;23.20;98.60
14097;DHT22;7125;48.106;11.544;2022-07-23T00:16:11;23.10;98.00
14097;DHT22;7125;48.106;11.544;2022-07-23T00:18:38;23.10;97.30
14097;DHT22;7125;48.106;11.544;2022-07-23T00:21:05;23.10;97.60
14097;DHT22;7125;48.106;11.544;2022-07-23T00:23:32;23.10;97.50
14097;DHT22;7125;48.106;11.544;2022-07-23T00:25:58;23.10;97.80
14097;DHT22;7125;48.106;11.544;2022-07-23T00:28:27;23.10;97.90
14097;DHT22;7125;48.106;11.544;2022-07-23T00:30:53;23.00;97.50
14097;DHT22;7125;48.106;11.544;2022-07-23T00:33:20;23.00;96.70
14097;DHT22;7125;48.106;11.544;2022-07-23T00:35:47;23.00;96.70
14097;DHT22;7125;48.106;11.544;2022-07-23T00:38:14;23.00;96.80
14097;DHT22;7125;48.106;11.544;2022-07-23T00:40:41;23.00;96.80
14097;DHT22;7125;48.106;11.544;2022-07-23T00:43:08;23.00;96.60
14097;DHT22;7125;48.106;11.544;2022-07-23T00:45:37;23.00;96.50
14097;DHT22;7125;48.106;11.544;2022-07-23T00:48:04;23.10;95.80
14097;DHT22;7125;48.106;11.544;2022-07-23T00:50:31;23.00;95.40
14097;DHT22;7125;48.106;11.544;2022-07-23T00:52:58;23.10;96.00
14097;DHT22;7125;48.106;11.544;2022-07-23T00:55:25;23.20;95.50
14097;DHT22;7125;48.106;11.544;2022-07-23T00:57:53;23.20;95.40
14097;DHT22;7125;48.106;11.544;2022-07-23T01:00:20;23.20;95.60
14097;DHT22;7125;48.106;11.544;2022-07-23T01:02:48;23.20;95.10
14097;DHT22;7125;48.106;11.544;2022-07-23T01:05:15;23.20;95.40
14097;DHT22;7125;48.106;11.544;2022-07-23T01:07:43;23.20;94.90
14097;DHT22;7125;48.106;11.544;2022-07-23T01:10:11;23.20;95.10
14097;DHT22;7125;48.106;11.544;2022-07-23T01:12:51;23.20;94.90
14097;DHT22;7125;48.106;11.544;2022-07-23T01:15:18;23.20;95.10
14097;DHT22;7125;48.106;11.544;2022-07-23T01:17:45;23.20;95.30
14097;DHT22;7125;48.106;11.544;2022-07-23T01:20:14;23.20;95.50
14097;DHT22;7125;48.106;11.544;2022-07-23T01:22:42;23.30;95.70
14097;DHT22;7125;48.106;11.544;2022-07-23T01:25:09;23.30;95.50
14097;DHT22;7125;48.106;11.544;2022-07-23T01:27:39;23.40;94.50
14097;DHT22;7125;48.106;11.544;2022-07-23T01:30:08;23.30;92.60
14097;DHT22;7125;48.106;11.544;2022-07-23T01:32:35;23.20;92.10
14097;DHT22;7125;48.106;11.544;2022-07-23T01:35:03;22.90;92.10
14097;DHT22;7125;48.106;11.544;2022-07-23T01:37:30;22.70;91.90
14097;DHT22;7125;48.106;11.544;2022-07-23T01:39:59;22.50;92.00
14097;DHT22;7125;48.106;11.544;2022-07-23T01:42:25;22.40;92.60
14097;DHT22;7125;48.106;11.544;2022-07-23T01:44:52;22.10;93.60
14097;DHT22;7125;48.106;11.544;2022-07-23T01:47:21;21.90;94.50
14097;DHT22;7125;48.106;11.544;2022-07-23T01:49:51;21.70;95.70
14097;DHT22;7125;48.106;11.544;2022-07-23T01:52:37;21.60;96.20
14097;DHT22;7125;48.106;11.544;2022-07-23T01:55:09;21.40;96.70
14097;DHT22;7125;48.106;11.544;2022-07-23T01:57:39;21.30;97.20
14097;DHT22;7125;48.106;11.544;2022-07-23T02:00:07;21.10;97.60
14097;DHT22;7125;48.106;11.544;2022-07-23T02:02:45;21.10;97.90
14097;DHT22;7125;48.106;11.544;2022-07-23T02:05:12;21.00;98.00
14097;DHT22;7125;48.106;11.544;2022-07-23T02:07:39;21.00;98.20
14097;DHT22;7125;48.106;11.544;2022-07-23T02:10:08;20.90;99.10
14097;DHT22;7125;48.106;11.544;2022-07-23T02:12:37;20.80;99.90
14097;DHT22;7125;48.106;11.544;2022-07-23T02:15:05;20.60;99.90
14097;DHT22;7125;48.106;11.544;2022-07-23T02:17:32;20.50;99.90
14097;DHT22;7125;48.106;11.544;2022-07-23T02:20:01;20.30;99.90
14097;DHT22;7125;48.106;11.544;2022-07-23T02:22:28;20.20;99.90
14097;DHT22;7125;48.106;11.544;2022-07-23T02:24:55;20.10;99.90
14097;DHT22;7125;48.106;11.544;2022-07-23T02:27:23;20.00;99.90
14097;DHT22;7125;48.106;11.544;2022-07-23T02:29:50;19.90;99.90
14097;DHT22;7125;48.106;11.544;2022-07-23T02:32:17;19.90;99.90
14097;DHT22;7125;48.106;11.544;2022-07-23T02:34:44;19.70;99.90
14097;DHT22;7125;48.106;11.544;2022-07-23T02:37:11;19.70;99.90
14097;DHT22;7125;48.106;11.544;2022-07-23T02:39:39;19.60;99.90
14097;DHT22;7125;48.106;11.544;2022-07-23T02:42:07;19.50;99.90
14097;DHT22;7125;48.106;11.544;2022-07-23T02:44:36;19.60;99.90
14097;DHT22;7125;48.106;11.544;2022-07-23T02:47:03;19.50;99.90
14097;DHT22;7125;48.106;11.544;2022-07-23T02:49:30;19.50;99.90
14097;DHT22;7125;48.106;11.544;2022-07-23T02:51:57;19.50;99.90
14097;DHT22;7125;48.106;11.544;2022-07-23T02:54:24;19.50;99.90
14097;DHT22;7125;48.106;11.544;2022-07-23T02:56:55;19.40;99.90
14097;DHT22;7125;48.106;11.544;2022-07-23T02:59:22;19.30;99.90
14097;DHT22;7125;48.106;11.544;2022-07-23T03:01:50;19.10;99.90
14097;DHT22;7125;48.106;11.544;2022-07-23T03:04:18;18.90;99.90
14097;DHT22;7125;48.106;11.544;2022-07-23T03:06:45;18.70;99.90
14097;DHT22;7125;48.106;11.544;2022-07-23T03:09:12;18.50;99.90
14097;DHT22;7125;48.106;11.544;2022-07-23T03:11:39;18.30;99.90
14097;DHT22;7125;48.106;11.544;2022-07-23T03:14:06;18.20;99.90
14097;DHT22;7125;48.106;11.544;2022-07-23T03:16:34;18.20;99.90
14097;DHT22;7125;48.106;11.544;2022-07-23T03:19:03;18.20;99.90
14097;DHT22;7125;48.106;11.544;2022-07-23T03:21:29;18.10;99.90
14097;DHT22;7125;48.106;11.544;2022-07-23T03:23:56;18.10;99.90
14097;DHT22;7125;48.106;11.544;2022-07-23T03:26:23;18.10;99.90
14097;DHT22;7125;48.106;11.544;2022-07-23T03:28:51;18.10;99.90
14097;DHT22;7125;48.106;11.544;2022-07-23T03:31:18;18.10;99.90
14097;DHT22;7125;48.106;11.544;2022-07-23T03:33:46;18.00;99.90
14097;DHT22;7125;48.106;11.544;2022-07-23T03:36:14;18.10;99.90
14097;DHT22;7125;48.106;11.544;2022-07-23T03:38:43;18.10;99.90
14097;DHT22;7125;48.106;11.544;2022-07-23T03:41:10;18.10;99.90
14097;DHT22;7125;48.106;11.544;2022-07-23T03:43:37;18.10;99.90
14097;DHT22;7125;48.106;11.544;2022-07-23T03:46:04;18.10;99.90
14097;DHT22;7125;48.106;11.544;2022-07-23T03:48:31;18.10;99.90
14097;DHT22;7125;48.106;11.544;2022-07-23T03:50:58;18.10;99.90
14097;DHT22;7125;48.106;11.544;2022-07-23T03:53:26;18.10;99.90
14097;DHT22;7125;48.106;11.544;2022-07-23T03:55:53;18.10;99.90
14097;DHT22;7125;48.106;11.544;2022-07-23T03:58:20;18.00;99.90
14097;DHT22;7125;48.106;11.544;2022-07-23T04:00:47;18.00;99.90
14097;DHT22;7125;48.106;11.544;2022-07-23T04:03:15;17.90;99.90
14097;DHT22;7125;48.106;11.544;2022-07-23T04:05:42;17.90;99.90
14097;DHT22;7125;48.106;11.544;2022-07-23T04:08:12;17.90;99.90
14097;DHT22;7125;48.106;11.544;2022-07-23T04:10:44;18.00;99.90
14097;DHT22;7125;48.106;11.544;2022-07-23T04:13:13;18.00;99.90
14097;DHT22;7125;48.106;11.544;2022-07-23T04:15:40;18.00;99.90
14097;DHT22;7125;48.106;11.544;2022-07-23T04:18:07;18.00;99.90
14097;DHT22;7125;48.106;11.544;2022-07-23T04:20:43;18.00;99.90
14097;DHT22;7125;48.106;11.544;2022-07-23T04:23:11;18.00;99.90
14097;DHT22;7125;48.106;11.544;2022-07-23T04:25:38;18.00;99.90
14097;DHT22;7125;48.106;11.544;2022-07-23T04:28:07;18.00;99.90
14097;DHT22;7125;48.106;11.544;2022-07-23T04:30:35;18.00;99.90
14097;DHT22;7125;48.106;11.544;2022-07-23T04:33:02;17.90;99.90
14097;DHT22;7125;48.106;11.544;2022-07-23T04:35:32;18.00;99.90
14097;DHT22;7125;48.106;11.544;2022-07-23T04:38:09;18.00;99.90
14097;DHT22;7125;48.106;11.544;2022-07-23T04:40:37;17.90;99.90
14097;DHT22;7125;48.106;11.544;2022-07-23T04:43:06;17.90;99.90
14097;DHT22;7125;48.106;11.544;2022-07-23T04:45:40;17.90;99.90
14097;DHT22;7125;48.106;11.544;2022-07-23T04:48:07;17.90;99.90
14097;DHT22;7125;48.106;11.544;2022-07-23T04:50:34;18.00;99.90
14097;DHT22;7125;48.106;11.544;2022-07-23T04:53:01;18.00;99.90
14097;DHT22;7125;48.106;11.544;2022-07-23T04:55:28;18.10;99.90
14097;DHT22;7125;48.106;11.544;2022-07-23T04:57:55;18.20;99.90
14097;DHT22;7125;48.106;11.544;2022-07-23T05:00:24;18.20;99.90
14097;DHT22;7125;48.106;11.544;2022-07-23T05:02:50;18.30;99.90
14097;DHT22;7125;48.106;11.544;2022-07-23T05:05:17;18.30;99.90
14097;DHT22;7125;48.106;11.544;2022-07-23T05:07:44;18.40;99.90
14097;DHT22;7125;48.106;11.544;2022-07-23T05:10:11;18.40;99.90
14097;DHT22;7125;48.106;11.544;2022-07-23T05:12:38;18.40;99.90
14097;DHT22;7125;48.106;11.544;2022-07-23T05:15:05;18.40;99.90
14097;DHT22;7125;48.106;11.544;2022-07-23T05:17:33;18.40;99.90
14097;DHT22;7125;48.106;11.544;2022-07-23T05:20:02;18.40;99.90
14097;DHT22;7125;48.106;11.544;2022-07-23T05:22:30;18.50;99.90
14097;DHT22;7125;48.106;11.544;2022-07-23T05:24:56;18.50;99.90
14097;DHT22;7125;48.106;11.544;2022-07-23T05:27:24;18.50;99.90
14097;DHT22;7125;48.106;11.544;2022-07-23T05:29:51;18.60;99.90
14097;DHT22;7125;48.106;11.544;2022-07-23T05:32:18;18.60;99.90
14097;DHT22;7125;48.106;11.544;2022-07-23T05:34:54;18.60;99.90
14097;DHT22;7125;48.106;11.544;2022-07-23T05:37:21;18.60;99.90
14097;DHT22;7125;48.106;11.544;2022-07-23T05:39:48;18.70;99.90
14097;DHT22;7125;48.106;11.544;2022-07-23T05:42:17;18.70;99.90
14097;DHT22;7125;48.106;11.544;2022-07-23T05:44:43;18.60;99.90
14097;DHT22;7125;48.106;11.544;2022-07-23T05:47:11;18.60;99.90
14097;DHT22;7125;48.106;11.544;2022-07-23T05:49:38;18.70;99.90
14097;DHT22;7125;48.106;11.544;2022-07-23T05:52:25;18.70;99.90
14097;DHT22;7125;48.106;11.544;2022-07-23T05:55:11;18.70;99.90
14097;DHT22;7125;48.106;11.544;2022-07-23T05:57:39;18.60;99.90
14097;DHT22;7125;48.106;11.544;2022-07-23T06:00:07;18.70;99.90
14097;DHT22;7125;48.106;11.544;2022-07-23T06:02:39;18.60;99.90
14097;DHT22;7125;48.106;11.544;2022-07-23T06:05:09;18.60;99.90
14097;DHT22;7125;48.106;11.544;2022-07-23T06:07:39;18.50;99.90
14097;DHT22;7125;48.106;11.544;2022-07-23T06:10:07;18.50;99.90
14097;DHT22;7125;48.106;11.544;2022-07-23T06:12:35;18.50;99.90
14097;DHT22;7125;48.106;11.544;2022-07-23T06:15:02;18.50;99.90
14097;DHT22;7125;48.106;11.544;2022-07-23T06:17:30;18.40;99.90
14097;DHT22;7125;48.106;11.544;2022-07-23T06:19:57;18.50;99.90
14097;DHT22;7125;48.106;11.544;2022-07-23T06:22:24;18.50;99.90
14097;DHT22;7125;48.106;11.544;2022-07-23T06:24:52;18.50;99.90
14097;DHT22;7125;48.106;11.544;2022-07-23T06:27:20;18.50;99.90
14097;DHT22;7125;48.106;11.544;2022-07-23T06:29:47;18.50;99.90
14097;DHT22;7125;48.106;11.544;2022-07-23T06:32:14;18.50;99.90
14097;DHT22;7125;48.106;11.544;2022-07-23T06:34:42;18.50;99.90
14097;DHT22;7125;48.106;11.544;2022-07-23T06:37:09;18.50;99.90
14097;DHT22;7125;48.106;11.544;2022-07-23T06:39:36;18.50;99.90
14097;DHT22;7125;48.106;11.544;2022-07-23T06:42:04;18.60;99.90
14097;DHT22;7125;48.106;11.544;2022-07-23T06:44:37;18.60;99.90
14097;DHT22;7125;48.106;11.544;2022-07-23T06:47:07;18.40;99.90
14097;DHT22;7125;48.106;11.544;2022-07-23T06:49:34;18.40;99.90
14097;DHT22;7125;48.106;11.544;2022-07-23T06:52:01;18.50;99.90
14097;DHT22;7125;48.106;11.544;2022-07-23T06:54:28;18.50;99.90
14097;DHT22;7125;48.106;11.544;2022-07-23T06:56:55;18.60;99.90
14097;DHT22;7125;48.106;11.544;2022-07-23T06:59:23;18.70;99.90
14097;DHT22;7125;48.106;11.544;2022-07-23T07:01:50;18.70;99.90
14097;DHT22;7125;48.106;11.544;2022-07-23T07:04:17;18.80;99.90
14097;DHT22;7125;48.106;11.544;2022-07-23T07:06:44;18.80;99.90
14097;DHT22;7125;48.106;11.544;2022-07-23T07:09:10;18.80;99.90
14097;DHT22;7125;48.106;11.544;2022-07-23T07:11:37;18.80;99.90
14097;DHT22;7125;48.106;11.544;2022-07-23T07:14:04;18.90;99.90
14097;DHT22;7125;48.106;11.544;2022-07-23T07:16:33;18.90;99.90
14097;DHT22;7125;48.106;11.544;2022-07-23T07:18:59;18.90;99.90
14097;DHT22;7125;48.106;11.544;2022-07-23T07:21:26;19.00;99.90
14097;DHT22;7125;48.106;11.544;2022-07-23T07:23:53;19.00;99.90
14097;DHT22;7125;48.106;11.544;2022-07-23T07:26:20;19.00;99.90
14097;DHT22;7125;48.106;11.544;2022-07-23T07:28:47;19.10;99.90
14097;DHT22;7125;48.106;11.544;2022-07-23T07:31:14;19.10;99.90
14097;DHT22;7125;48.106;11.544;2022-07-23T07:33:42;19.10;99.90
14097;DHT22;7125;48.106;11.544;2022-07-23T07:36:09;19.20;99.90
14097;DHT22;7125;48.106;11.544;2022-07-23T07:38:36;19.20;99.90
14097;DHT22;7125;48.106;11.544;2022-07-23T07:41:02;19.20;99.90
14097;DHT22;7125;48.106;11.544;2022-07-23T07:43:29;19.20;99.90
14097;DHT22;7125;48.106;11.544;2022-07-23T07:45:56;19.20;99.90
14097;DHT22;7125;48.106;11.544;2022-07-23T07:48:23;19.20;99.90
14097;DHT22;7125;48.106;11.544;2022-07-23T07:50:51;19.20;99.90
14097;DHT22;7125;48.106;11.544;2022-07-23T07:53:18;19.20;99.90
14097;DHT22;7125;48.106;11.544;2022-07-23T07:55:45;19.20;99.90
14097;DHT22;7125;48.106;11.544;2022-07-23T07:58:12;19.20;99.90
14097;DHT22;7125;48.106;11.544;2022-07-23T08:00:39;19.20;99.90
14097;DHT22;7125;48.106;11.544;2022-07-23T08:03:06;19.30;99.90
14097;DHT22;7125;48.106;11.544;2022-07-23T08:05:33;19.30;99.90
14097;DHT22;7125;48.106;11.544;2022-07-23T08:08:01;19.40;99.90
14097;DHT22;7125;48.106;11.544;2022-07-23T08:10:29;19.40;99.90
14097;DHT22;7125;48.106;11.544;2022-07-23T08:12:58;19.50;99.90
14097;DHT22;7125;48.106;11.544;2022-07-23T08:15:27;19.50;99.90
14097;DHT22;7125;48.106;11.544;2022-07-23T08:17:54;19.50;99.90
14097;DHT22;7125;48.106;11.544;2022-07-23T08:20:23;19.50;99.90
14097;DHT22;7125;48.106;11.544;2022-07-23T08:22:51;19.50;99.90
14097;DHT22;7125;48.106;11.544;2022-07-23T08:25:23;19.60;99.90
14097;DHT22;7125;48.106;11.544;2022-07-23T08:27:51;19.60;99.90
14097;DHT22;7125;48.106;11.544;2022-07-23T08:30:18;19.70;99.90
14097;DHT22;7125;48.106;11.544;2022-07-23T08:32:54;19.70;99.90
14097;DHT22;7125;48.106;11.544;2022-07-23T08:35:27;19.80;99.90
14097;DHT22;7125;48.106;11.544;2022-07-23T08:37:55;19.80;99.90
14097;DHT22;7125;48.106;11.544;2022-07-23T08:40:23;19.80;99.90
14097;DHT22;7125;48.106;11.544;2022-07-23T08:42:51;19.90;99.90
14097;DHT22;7125;48.106;11.544;2022-07-23T08:45:20;19.90;99.90
14097;DHT22;7125;48.106;11.544;2022-07-23T08:47:49;20.10;99.90
14097;DHT22;7125;48.106;11.544;2022-07-23T08:50:16;20.20;99.90
14097;DHT22;7125;48.106;11.544;2022-07-23T08:52:44;20.20;99.90
14097;DHT22;7125;48.106;11.544;2022-07-23T08:55:11;20.30;99.90
14097;DHT22;7125;48.106;11.544;2022-07-23T08:57:40;20.40;99.90
14097;DHT22;7125;48.106;11.544;2022-07-23T09:00:07;20.40;99.90
14097;DHT22;7125;48.106;11.544;2022-07-23T09:02:41;20.50;99.90
14097;DHT22;7125;48.106;11.544;2022-07-23T09:05:09;20.50;99.90
14097;DHT22;7125;48.106;11.544;2022-07-23T09:07:36;20.50;99.90
14097;DHT22;7125;48.106;11.544;2022-07-23T09:10:08;20.50;99.90
14097;DHT22;7125;48.106;11.544;2022-07-23T09:12:35;20.60;99.90
14097;DHT22;7125;48.106;11.544;2022-07-23T09:15:08;20.60;99.90
14097;DHT22;7125;48.106;11.544;2022-07-23T09:17:38;20.70;99.90
14097;DHT22;7125;48.106;11.544;2022-07-23T09:20:10;20.70;99.90
14097;DHT22;7125;48.106;11.544;2022-07-23T09:22:38;20.80;99.90
14097;DHT22;7125;48.106;11.544;2022-07-23T09:25:09;20.90;99.90
14097;DHT22;7125;48.106;11.544;2022-07-23T09:27:48;20.90;99.90
14097;DHT22;7125;48.106;11.544;2022-07-23T09:30:16;21.00;99.90
14097;DHT22;7125;48.106;11.544;2022-07-23T09:32:43;21.00;99.90
14097;DHT22;7125;48.106;11.544;2022-07-23T09:35:10;21.20;99.90
14097;DHT22;7125;48.106;11.544;2022-07-23T09:37:37;21.30;99.90
14097;DHT22;7125;48.106;11.544;2022-07-23T09:40:06;21.50;99.90
14097;DHT22;7125;48.106;11.544;2022-07-23T09:42:34;21.60;99.90
14097;DHT22;7125;48.106;11.544;2022-07-23T09:45:01;21.70;99.90
14097;DHT22;7125;48.106;11.544;2022-07-23T09:47:31;21.90;99.90
14097;DHT22;7125;48.106;11.544;2022-07-23T09:49:59;22.00;99.90
14097;DHT22;7125;48.106;11.544;2022-07-23T09:52:27;22.20;99.90
14097;DHT22;7125;48.106;11.544;2022-07-23T09:54:58;22.40;99.90
14097;DHT22;7125;48.106;11.544;2022-07-23T09:57:27;22.50;99.90
14097;DHT22;7125;48.106;11.544;2022-07-23T09:59:56;22.80;99.90
14097;DHT22;7125;48.106;11.544;2022-07-23T10:02:24;22.90;99.90
14097;DHT22;7125;48.106;11.544;2022-07-23T10:05:16;23.00;99.90
14097;DHT22;7125;48.106;11.544;2022-07-23T10:08:07;23.20;99.90
14097;DHT22;7125;48.106;11.544;2022-07-23T10:10:54;23.50;99.90
14097;DHT22;7125;48.106;11.544;2022-07-23T10:13:28;23.80;99.90
14097;DHT22;7125;48.106;11.544;2022-07-23T10:16:13;24.00;99.90
14097;DHT22;7125;48.106;11.544;2022-07-23T10:18:40;24.30;99.90
14097;DHT22;7125;48.106;11.544;2022-07-23T10:21:09;24.50;99.90
14097;DHT22;7125;48.106;11.544;2022-07-23T10:23:42;24.60;99.90
14097;DHT22;7125;48.106;11.544;2022-07-23T10:26:12;24.80;99.90
14097;DHT22;7125;48.106;11.544;2022-07-23T10:28:58;24.80;99.90
14097;DHT22;7125;48.106;11.544;2022-07-23T10:31:35;24.90;99.90
14097;DHT22;7125;48.106;11.544;2022-07-23T10:34:14;25.00;99.90
14097;DHT22;7125;48.106;11.544;2022-07-23T10:36:51;25.10;99.90
14097;DHT22;7125;48.106;11.544;2022-07-23T10:39:22;25.20;99.90
14097;DHT22;7125;48.106;11.544;2022-07-23T10:41:50;25.20;99.90
14097;DHT22;7125;48.106;11.544;2022-07-23T10:44:20;25.20;99.90
14097;DHT22;7125;48.106;11.544;2022-07-23T10:46:57;25.10;99.90
14097;DHT22;7125;48.106;11.544;2022-07-23T10:49:42;25.10;99.90
14097;DHT22;7125;48.106;11.544;2022-07-23T10:52:22;25.00;99.60
14097;DHT22;7125;48.106;11.544;2022-07-23T10:54:51;25.00;99.90
14097;DHT22;7125;48.106;11.544;2022-07-23T10:57:19;25.00;99.10
14097;DHT22;7125;48.106;11.544;2022-07-23T11:00:15;25.10;98.20
14097;DHT22;7125;48.106;11.544;2022-07-23T11:02:44;25.10;97.70
14097;DHT22;7125;48.106;11.544;2022-07-23T11:05:13;25.20;97.50
14097;DHT22;7125;48.106;11.544;2022-07-23T11:10:54;25.20;97.70
14097;DHT22;7125;48.106;11.544;2022-07-23T11:13:30;25.10;98.20
14097;DHT22;7125;48.106;11.544;2022-07-23T11:16:24;25.00;98.40
14097;DHT22;7125;48.106;11.544;2022-07-23T11:18:57;25.00;98.40
14097;DHT22;7125;48.106;11.544;2022-07-23T11:21:44;24.90;98.20
14097;DHT22;7125;48.106;11.544;2022-07-23T11:24:13;24.90;98.60
14097;DHT22;7125;48.106;11.544;2022-07-23T11:26:47;24.80;98.40
14097;DHT22;7125;48.106;11.544;2022-07-23T11:29:42;24.80;98.10
14097;DHT22;7125;48.106;11.544;2022-07-23T11:32:23;24.70;97.60
14097;DHT22;7125;48.106;11.544;2022-07-23T11:34:51;24.70;98.00
14097;DHT22;7125;48.106;11.544;2022-07-23T11:37:43;24.60;98.20
14097;DHT22;7125;48.106;11.544;2022-07-23T11:40:12;24.50;98.80
14097;DHT22;7125;48.106;11.544;2022-07-23T11:42:51;24.40;99.00
14097;DHT22;7125;48.106;11.544;2022-07-23T11:45:18;24.40;99.30
14097;DHT22;7125;48.106;11.544;2022-07-23T11:47:45;24.30;99.20
14097;DHT22;7125;48.106;11.544;2022-07-23T11:50:12;24.20;99.20
14097;DHT22;7125;48.106;11.544;2022-07-23T11:52:39;24.20;99.10
14097;DHT22;7125;48.106;11.544;2022-07-23T11:55:08;24.20;99.60
14097;DHT22;7125;48.106;11.544;2022-07-23T11:57:36;24.10;99.70
14097;DHT22;7125;48.106;11.544;2022-07-23T12:00:08;24.10;99.50
14097;DHT22;7125;48.106;11.544;2022-07-23T12:02:39;24.00;99.90
14097;DHT22;7125;48.106;11.544;2022-07-23T12:05:07;24.00;99.90
14097;DHT22;7125;48.106;11.544;2022-07-23T12:07:36;24.00;99.90
14097;DHT22;7125;48.106;11.544;2022-07-23T12:10:08;24.00;99.90
14097;DHT22;7125;48.106;11.544;2022-07-23T12:12:37;24.00;99.90
14097;DHT22;7125;48.106;11.544;2022-07-23T12:15:07;23.90;99.90
14097;DHT22;7125;48.106;11.544;2022-07-23T12:17:36;23.90;99.80
14097;DHT22;7125;48.106;11.544;2022-07-23T12:20:05;23.90;99.80
14097;DHT22;7125;48.106;11.544;2022-07-23T12:22:38;23.90;99.80
14097;DHT22;7125;48.106;11.544;2022-07-23T12:25:11;23.90;99.90
14097;DHT22;7125;48.106;11.544;2022-07-23T12:27:38;23.90;99.90
14097;DHT22;7125;48.106;11.544;2022-07-23T12:30:23;23.90;99.80
14097;DHT22;7125;48.106;11.544;2022-07-23T12:32:52;23.90;99.90
14097;DHT22;7125;48.106;11.544;2022-07-23T12:35:20;23.90;99.90
14097;DHT22;7125;48.106;11.544;2022-07-23T12:37:49;23.90;99.90
14097;DHT22;7125;48.106;11.544;2022-07-23T12:40:28;23.90;99.90
14097;DHT22;7125;48.106;11.544;2022-07-23T12:42:57;23.90;99.90
14097;DHT22;7125;48.106;11.544;2022-07-23T12:45:27;23.90;99.90
14097;DHT22;7125;48.106;11.544;2022-07-23T12:48:01;23.90;99.90
14097;DHT22;7125;48.106;11.544;2022-07-23T12:50:41;23.90;99.90
14097;DHT22;7125;48.106;11.544;2022-07-23T12:53:11;23.80;99.70
14097;DHT22;7125;48.106;11.544;2022-07-23T12:55:40;23.80;99.90
14097;DHT22;7125;48.106;11.544;2022-07-23T12:58:10;23.70;99.80
14097;DHT22;7125;48.106;11.544;2022-07-23T13:01:06;23.70;99.70
14097;DHT22;7125;48.106;11.544;2022-07-23T13:03:36;23.70;99.90
14097;DHT22;7125;48.106;11.544;2022-07-23T13:06:04;23.70;99.90
14097;DHT22;7125;48.106;11.544;2022-07-23T13:08:33;23.80;99.90
14097;DHT22;7125;48.106;11.544;2022-07-23T13:11:01;23.80;99.90
14097;DHT22;7125;48.106;11.544;2022-07-23T13:13:29;23.80;99.90
14097;DHT22;7125;48.106;11.544;2022-07-23T13:15:57;23.80;99.90
14097;DHT22;7125;48.106;11.544;2022-07-23T13:18:27;23.80;99.90
14097;DHT22;7125;48.106;11.544;2022-07-23T13:20:54;23.80;99.90
14097;DHT22;7125;48.106;11.544;2022-07-23T13:23:21;23.80;99.90
14097;DHT22;7125;48.106;11.544;2022-07-23T13:25:48;23.80;99.90
14097;DHT22;7125;48.106;11.544;2022-07-23T13:28:16;23.80;99.90
14097;DHT22;7125;48.106;11.544;2022-07-23T13:30:44;23.80;99.90
14097;DHT22;7125;48.106;11.544;2022-07-23T13:33:11;23.80;99.90
14097;DHT22;7125;48.106;11.544;2022-07-23T13:35:40;23.80;99.90
14097;DHT22;7125;48.106;11.544;2022-07-23T13:38:06;23.70;99.90
14097;DHT22;7125;48.106;11.544;2022-07-23T13:40:38;23.80;99.90
14097;DHT22;7125;48.106;11.544;2022-07-23T13:43:06;23.80;99.90
14097;DHT22;7125;48.106;11.544;2022-07-23T13:45:33;23.80;99.90
14097;DHT22;7125;48.106;11.544;2022-07-23T13:48:01;23.90;99.90
14097;DHT22;7125;48.106;11.544;2022-07-23T13:50:28;24.00;99.90
14097;DHT22;7125;48.106;11.544;2022-07-23T13:52:56;24.00;99.90
14097;DHT22;7125;48.106;11.544;2022-07-23T13:55:23;24.00;99.90
14097;DHT22;7125;48.106;11.544;2022-07-23T13:57:50;24.00;99.90
14097;DHT22;7125;48.106;11.544;2022-07-23T14:00:17;23.90;99.90
14097;DHT22;7125;48.106;11.544;2022-07-23T14:02:44;23.80;99.90
14097;DHT22;7125;48.106;11.544;2022-07-23T14:05:11;23.80;99.90
14097;DHT22;7125;48.106;11.544;2022-07-23T14:07:39;23.80;99.90
14097;DHT22;7125;48.106;11.544;2022-07-23T14:10:09;23.80;99.90
14097;DHT22;7125;48.106;11.544;2022-07-23T14:12:36;23.70;99.90
14097;DHT22;7125;48.106;11.544;2022-07-23T14:15:05;23.60;99.90
14097;DHT22;7125;48.106;11.544;2022-07-23T14:17:34;23.50;99.90
14097;DHT22;7125;48.106;11.544;2022-07-23T14:20:01;23.40;99.90
14097;DHT22;7125;48.106;11.544;2022-07-23T14:22:27;23.30;99.90
14097;DHT22;7125;48.106;11.544;2022-07-23T14:24:54;23.20;99.90
14097;DHT22;7125;48.106;11.544;2022-07-23T14:27:25;23.20;99.90
14097;DHT22;7125;48.106;11.544;2022-07-23T14:29:52;23.10;99.90
14097;DHT22;7125;48.106;11.544;2022-07-23T14:32:19;23.10;99.90
14097;DHT22;7125;48.106;11.544;2022-07-23T14:34:46;23.10;99.90
14097;DHT22;7125;48.106;11.544;2022-07-23T14:37:14;23.10;99.90
14097;DHT22;7125;48.106;11.544;2022-07-23T14:39:41;23.20;99.90
14097;DHT22;7125;48.106;11.544;2022-07-23T14:42:08;23.20;99.90
14097;DHT22;7125;48.106;11.544;2022-07-23T14:44:37;23.20;99.90
14097;DHT22;7125;48.106;11.544;2022-07-23T14:47:05;23.30;99.90
14097;DHT22;7125;48.106;11.544;2022-07-23T14:49:32;23.30;99.90
14097;DHT22;7125;48.106;11.544;2022-07-23T14:52:00;23.30;99.90
14097;DHT22;7125;48.106;11.544;2022-07-23T14:54:27;23.50;99.90
14097;DHT22;7125;48.106;11.544;2022-07-23T14:56:55;23.60;99.90
14097;DHT22;7125;48.106;11.544;2022-07-23T14:59:23;23.70;99.90
14097;DHT22;7125;48.106;11.544;2022-07-23T15:01:51;23.80;99.90
14097;DHT22;7125;48.106;11.544;2022-07-23T15:04:18;23.90;99.90
14097;DHT22;7125;48.106;11.544;2022-07-23T15:06:45;24.00;99.90
14097;DHT22;7125;48.106;11.544;2022-07-23T15:09:12;24.00;99.90
14097;DHT22;7125;48.106;11.544;2022-07-23T15:11:40;24.00;99.90
14097;DHT22;7125;48.106;11.544;2022-07-23T15:14:08;24.00;99.90
14097;DHT22;7125;48.106;11.544;2022-07-23T15:16:35;24.00;99.90
14097;DHT22;7125;48.106;11.544;2022-07-23T15:19:04;24.10;99.90
14097;DHT22;7125;48.106;11.544;2022-07-23T15:21:31;24.20;99.90
14097;DHT22;7125;48.106;11.544;2022-07-23T15:23:58;24.30;99.90
14097;DHT22;7125;48.106;11.544;2022-07-23T15:26:25;24.40;99.90
14097;DHT22;7125;48.106;11.544;2022-07-23T15:28:52;24.60;99.90
14097;DHT22;7125;48.106;11.544;2022-07-23T15:31:19;24.80;99.90
14097;DHT22;7125;48.106;11.544;2022-07-23T15:33:46;24.90;99.90
14097;DHT22;7125;48.106;11.544;2022-07-23T15:36:16;25.00;99.90
14097;DHT22;7125;48.106;11.544;2022-07-23T15:38:43;25.20;99.90
14097;DHT22;7125;48.106;11.544;2022-07-23T15:41:10;25.20;99.90
14097;DHT22;7125;48.106;11.544;2022-07-23T15:43:37;25.30;99.90
14097;DHT22;7125;48.106;11.544;2022-07-23T15:46:04;25.60;99.90